KBKW/BKW METAR and TAF weather

Enter ICAO airport designator
Station Type Date Time Source
KBKW METAR 2021/04/13 07:51 UTC NOAA

KBKW 130751Z AUTO 00000KT 10SM CLR 07/04 A3002 RMK AO2 SLP162 T00720044 TSNO


Station Type Date Time Source
KBKW Decoded METAR 2021/04/13 07:51 UTC NOAA

RALEIGH COUNTY MEM AIRPORT , WV, United States (KBKW) 37-48N 081-07W 764M
Apr 13, 2021 - 03:51 AM EDT / 2021.04.13 0751 UTC
Wind: Calm:0
Visibility: 10 mile(s):0
Sky conditions: clear
Temperature: 45.0 F (7.2 C)
Dew Point: 39.9 F (4.4 C)
Relative Humidity: 82%
Pressure (altimeter): 30.02 in. Hg (1016 hPa)
ob: KBKW 130751Z AUTO 00000KT 10SM CLR 07/04 A3002 RMK AO2 SLP162 T00720044 TSNO
cycle: 8

Station Type Date Time Source
KBKW TAF 2021/04/13 06:34 UTC NOAA

TAF KBKW 130532Z 1306/1406 29005KT P6SM SKC
FM131700 31007KT P6SM SCT250
FM131900 30007KT P6SM BKN090
FM132300 28005KT P6SM SCT070

Example: see airport list